createdAt,value
2022-11-30T00:01:08.746Z,7.15
2022-11-30T00:03:35.418Z,7.03
2022-11-30T00:06:13.850Z,6.85
2022-11-30T00:08:40.466Z,6.60
2022-11-30T00:11:15.354Z,6.88
2022-11-30T00:13:42.193Z,5.93
2022-11-30T00:16:09.119Z,4.97
2022-11-30T00:18:36.375Z,5.57
2022-11-30T00:21:06.257Z,5.80
2022-11-30T00:23:34.630Z,6.07
2022-11-30T00:26:05.554Z,5.65
2022-11-30T00:28:33.703Z,5.97
2022-11-30T00:31:02.692Z,6.13
2022-11-30T00:33:29.704Z,4.95
2022-11-30T00:36:00.509Z,5.13
2022-11-30T00:38:27.619Z,5.53
2022-11-30T00:40:54.618Z,6.53
2022-11-30T00:43:21.381Z,6.38
2022-11-30T00:45:48.158Z,6.40
2022-11-30T00:48:15.928Z,6.70
2022-11-30T00:50:42.721Z,6.38
2022-11-30T00:53:09.430Z,6.80
2022-11-30T00:55:36.020Z,6.25
2022-11-30T00:58:02.668Z,6.50
2022-11-30T01:00:29.367Z,6.35
2022-11-30T01:02:56.967Z,6.75
2022-11-30T01:05:23.612Z,6.95
2022-11-30T01:07:50.390Z,7.75
2022-11-30T01:10:17.662Z,7.50
2022-11-30T01:12:44.352Z,7.32
2022-11-30T01:15:11.346Z,7.53
2022-11-30T01:17:38.188Z,7.18
2022-11-30T01:20:08.191Z,11.18
2022-11-30T01:22:35.937Z,9.73
2022-11-30T01:25:03.221Z,9.98
2022-11-30T01:27:29.878Z,12.27
2022-11-30T01:29:56.820Z,12.57
2022-11-30T01:32:23.525Z,12.90
2022-11-30T01:34:50.126Z,14.05
2022-11-30T01:37:16.769Z,12.70
2022-11-30T01:39:43.399Z,12.45
2022-11-30T01:42:18.928Z,11.00
2022-11-30T01:44:55.010Z,10.35
2022-11-30T01:47:30.618Z,9.02
2022-11-30T01:50:10.468Z,10.05
2022-11-30T01:52:40.219Z,8.88
2022-11-30T01:55:27.150Z,11.50
2022-11-30T01:58:01.924Z,8.80
2022-11-30T02:00:28.867Z,8.27
2022-11-30T02:03:11.370Z,8.05
2022-11-30T02:08:10.995Z,7.80
2022-11-30T02:10:52.721Z,6.93
2022-11-30T02:13:34.718Z,6.65
2022-11-30T02:16:39.477Z,5.95
2022-11-30T02:19:25.751Z,6.25
2022-11-30T02:21:57.995Z,4.95
2022-11-30T02:24:55.392Z,6.32
2022-11-30T02:27:30.186Z,6.40
2022-11-30T02:30:05.605Z,6.03
2022-11-30T02:32:39.104Z,6.40
2022-11-30T02:35:08.885Z,6.95
2022-11-30T02:37:37.718Z,8.38
2022-11-30T02:40:14.530Z,5.65
2022-11-30T02:42:41.260Z,5.72
2022-11-30T02:45:09.754Z,6.07
2022-11-30T02:47:48.311Z,7.05
2022-11-30T02:50:21.133Z,5.20
2022-11-30T02:52:48.590Z,5.00
2022-11-30T02:55:17.890Z,6.18
2022-11-30T02:57:44.629Z,6.38
2022-11-30T03:00:13.150Z,5.38
2022-11-30T03:02:40.890Z,5.55
2022-11-30T03:05:09.167Z,5.95
2022-11-30T03:07:35.890Z,5.55
2022-11-30T03:10:03.014Z,6.55
2022-11-30T03:12:29.801Z,7.30
2022-11-30T03:14:56.394Z,4.95
2022-11-30T03:17:23.256Z,4.57
2022-11-30T03:19:49.886Z,5.43
2022-11-30T03:22:16.589Z,6.32
2022-11-30T03:24:43.189Z,4.47
2022-11-30T03:27:09.911Z,6.35
2022-11-30T03:29:36.752Z,5.25
2022-11-30T03:32:03.660Z,5.03
2022-11-30T03:34:30.270Z,4.97
2022-11-30T03:36:57.350Z,4.40
2022-11-30T03:39:24.371Z,5.53
2022-11-30T03:41:51.781Z,4.65
2022-11-30T03:44:18.609Z,6.13
2022-11-30T03:46:45.388Z,4.82
2022-11-30T03:49:12.070Z,4.78
2022-11-30T03:51:38.745Z,4.18
2022-11-30T03:54:05.499Z,4.45
2022-11-30T03:56:32.303Z,3.90
2022-11-30T03:58:58.996Z,5.20
2022-11-30T04:01:26.772Z,4.70
2022-11-30T04:03:54.341Z,4.70
2022-11-30T04:06:21.849Z,3.83
2022-11-30T04:08:48.908Z,4.80
2022-11-30T04:11:17.197Z,3.90
2022-11-30T04:13:44.957Z,4.18
2022-11-30T04:16:11.783Z,3.95
2022-11-30T04:18:39.169Z,4.40
2022-11-30T04:21:07.305Z,5.82
2022-11-30T04:23:36.840Z,4.47
2022-11-30T04:26:08.229Z,4.30
2022-11-30T04:28:35.390Z,4.20
2022-11-30T04:31:03.091Z,4.80
2022-11-30T04:33:30.042Z,3.88
2022-11-30T04:35:59.661Z,4.60
2022-11-30T04:38:26.697Z,4.60
2022-11-30T04:40:53.902Z,3.50
2022-11-30T04:43:21.868Z,4.38
2022-11-30T04:45:48.605Z,4.53
2022-11-30T04:48:16.017Z,4.18
2022-11-30T04:50:42.615Z,4.47
2022-11-30T04:53:09.886Z,5.32
2022-11-30T04:55:38.043Z,4.80
2022-11-30T04:58:05.486Z,6.55
2022-11-30T05:00:33.031Z,8.10
2022-11-30T05:02:59.679Z,7.97
2022-11-30T05:05:26.315Z,8.63
2022-11-30T05:07:58.115Z,9.43
2022-11-30T05:10:25.929Z,8.60
2022-11-30T05:12:53.381Z,8.25
2022-11-30T05:15:20.476Z,11.45
2022-11-30T05:17:47.195Z,9.90
2022-11-30T05:20:14.174Z,9.45
2022-11-30T05:22:40.883Z,10.10
2022-11-30T05:25:08.611Z,8.82
2022-11-30T05:27:35.958Z,8.60
2022-11-30T05:30:03.310Z,9.95
2022-11-30T05:32:29.948Z,13.27
2022-11-30T05:34:56.790Z,11.93
2022-11-30T05:37:23.772Z,9.10
2022-11-30T05:39:50.463Z,9.80
2022-11-30T05:42:17.120Z,8.57
2022-11-30T05:44:43.785Z,8.75
2022-11-30T05:47:10.683Z,9.73
2022-11-30T05:49:37.409Z,9.70
2022-11-30T05:52:04.119Z,9.57
2022-11-30T05:54:30.788Z,9.35
2022-11-30T05:56:57.374Z,9.77
2022-11-30T05:59:24.067Z,8.05
2022-11-30T06:01:54.208Z,7.03
2022-11-30T06:04:21.772Z,8.63
2022-11-30T06:06:49.611Z,7.63
2022-11-30T06:09:16.656Z,6.70
2022-11-30T06:11:43.352Z,8.30
2022-11-30T06:14:09.960Z,6.63
2022-11-30T06:16:39.374Z,6.53
2022-11-30T06:19:06.339Z,7.97
2022-11-30T06:21:33.020Z,7.80
2022-11-30T06:23:59.731Z,6.43
2022-11-30T06:26:26.497Z,6.75
2022-11-30T06:28:53.244Z,6.60
2022-11-30T06:31:19.970Z,6.80
2022-11-30T06:33:46.873Z,5.70
2022-11-30T06:36:13.490Z,5.80
2022-11-30T06:38:40.105Z,5.80
2022-11-30T06:41:08.801Z,4.53
2022-11-30T06:43:39.793Z,5.43
2022-11-30T06:46:07.648Z,6.05
2022-11-30T06:48:35.047Z,5.93
2022-11-30T06:51:04.935Z,5.22
2022-11-30T06:53:31.532Z,4.93
2022-11-30T06:55:58.288Z,5.28
2022-11-30T06:58:24.944Z,4.60
2022-11-30T07:00:51.627Z,5.57
2022-11-30T07:03:18.259Z,6.28
2022-11-30T07:05:46.608Z,9.00
2022-11-30T07:08:17.663Z,8.50
2022-11-30T07:10:46.151Z,7.93
2022-11-30T07:13:14.808Z,8.65
2022-11-30T07:15:42.556Z,8.55
2022-11-30T07:18:09.658Z,8.25
2022-11-30T07:20:36.954Z,11.77
2022-11-30T07:23:23.132Z,9.38
2022-11-30T07:26:06.631Z,8.82
2022-11-30T07:28:42.125Z,8.88
2022-11-30T07:31:27.255Z,9.77
2022-11-30T07:33:55.035Z,7.75
2022-11-30T07:36:23.165Z,9.10
2022-11-30T07:38:50.073Z,9.90
2022-11-30T07:41:16.707Z,9.68
2022-11-30T07:43:43.535Z,10.40
2022-11-30T07:46:13.100Z,9.48
2022-11-30T07:48:40.221Z,7.82
2022-11-30T07:51:12.170Z,8.23
2022-11-30T07:53:38.915Z,9.38
2022-11-30T07:56:07.499Z,9.88
2022-11-30T07:58:34.627Z,13.13
2022-11-30T08:01:07.529Z,8.68
2022-11-30T08:03:37.044Z,7.80
2022-11-30T08:06:09.893Z,8.93
2022-11-30T08:08:38.959Z,7.40
2022-11-30T08:11:07.443Z,6.57
2022-11-30T08:13:34.567Z,6.72
2022-11-30T08:16:07.597Z,7.03
2022-11-30T08:18:34.678Z,7.20
2022-11-30T08:21:03.827Z,8.00
2022-11-30T08:23:37.267Z,7.13
2022-11-30T08:26:06.835Z,7.60
2022-11-30T08:28:37.573Z,7.03
2022-11-30T08:31:07.968Z,6.55
2022-11-30T08:33:35.523Z,6.65
2022-11-30T08:36:09.369Z,7.47
2022-11-30T08:38:36.264Z,8.60
2022-11-30T08:41:03.630Z,6.43
2022-11-30T08:43:30.349Z,7.28
2022-11-30T08:45:57.626Z,7.30
2022-11-30T08:48:24.794Z,7.80
2022-11-30T08:50:51.441Z,6.20
2022-11-30T08:53:18.106Z,6.50
2022-11-30T08:55:54.593Z,5.82
2022-11-30T08:58:21.186Z,7.00
2022-11-30T09:00:47.877Z,7.07
2022-11-30T09:03:14.534Z,6.88
2022-11-30T09:05:41.207Z,6.35
2022-11-30T09:08:07.875Z,7.07
2022-11-30T09:10:34.772Z,7.10
2022-11-30T09:13:01.406Z,6.65
2022-11-30T09:15:28.059Z,7.07
2022-11-30T09:17:54.729Z,6.00
2022-11-30T09:20:21.469Z,6.20
2022-11-30T09:22:49.134Z,6.30
2022-11-30T09:25:15.842Z,6.50
2022-11-30T09:27:43.548Z,5.65
2022-11-30T09:30:10.666Z,7.35
2022-11-30T09:32:37.273Z,6.85
2022-11-30T09:35:05.836Z,5.43
2022-11-30T09:37:35.250Z,5.10
2022-11-30T09:40:02.065Z,5.80
2022-11-30T09:42:49.006Z,4.97
2022-11-30T09:45:30.647Z,5.00
2022-11-30T09:48:28.063Z,5.70
2022-11-30T09:50:55.166Z,5.75
2022-11-30T09:53:40.227Z,4.78
2022-11-30T09:56:18.917Z,4.30
2022-11-30T09:58:51.209Z,5.22
2022-11-30T10:03:46.910Z,3.72
2022-11-30T10:06:26.352Z,4.82
2022-11-30T10:09:03.289Z,4.30
2022-11-30T10:11:42.484Z,4.72
2022-11-30T10:14:37.326Z,5.32
2022-11-30T10:17:22.336Z,3.75
2022-11-30T10:19:54.614Z,4.30
2022-11-30T10:22:46.592Z,4.43
2022-11-30T10:25:37.652Z,4.05
2022-11-30T10:28:46.447Z,3.58
2022-11-30T10:31:13.880Z,3.80
2022-11-30T10:33:55.169Z,3.10
2022-11-30T10:36:33.294Z,4.30
2022-11-30T10:39:03.924Z,4.15
2022-11-30T10:41:47.089Z,3.08
2022-11-30T10:44:40.700Z,3.97
2022-11-30T10:47:24.430Z,3.50
2022-11-30T10:49:52.777Z,4.18
2022-11-30T10:52:26.647Z,2.85
2022-11-30T10:55:02.284Z,3.72
2022-11-30T10:57:32.516Z,3.42
2022-11-30T11:00:02.501Z,3.92
2022-11-30T11:02:43.214Z,3.03
2022-11-30T11:05:30.936Z,3.50
2022-11-30T11:08:06.967Z,4.18
2022-11-30T11:10:45.152Z,3.40
2022-11-30T11:13:39.223Z,2.70
2022-11-30T11:16:08.907Z,3.50
2022-11-30T11:18:37.530Z,2.83
2022-11-30T11:21:09.955Z,2.92
2022-11-30T11:23:39.362Z,2.70
2022-11-30T11:26:08.640Z,2.78
2022-11-30T11:28:37.296Z,3.00
2022-11-30T11:31:19.034Z,2.45
2022-11-30T11:33:54.735Z,3.40
2022-11-30T11:36:32.056Z,3.30
2022-11-30T11:39:00.607Z,2.85
2022-11-30T11:41:34.032Z,3.17
2022-11-30T11:44:06.475Z,3.50
2022-11-30T11:46:38.065Z,3.13
2022-11-30T11:49:22.488Z,2.80
2022-11-30T11:52:03.197Z,2.88
2022-11-30T11:54:55.844Z,3.50
2022-11-30T11:57:33.674Z,2.90
2022-11-30T12:00:16.485Z,2.72
2022-11-30T12:03:02.441Z,2.45
2022-11-30T12:05:42.952Z,3.13
2022-11-30T12:08:24.843Z,2.90
2022-11-30T12:11:02.921Z,3.10
2022-11-30T12:13:37.246Z,2.83
2022-11-30T12:16:15.794Z,2.90
2022-11-30T12:19:15.495Z,3.28
2022-11-30T12:21:57.746Z,3.08
2022-11-30T12:24:55.316Z,4.30
2022-11-30T12:27:30.800Z,3.28
2022-11-30T12:30:03.183Z,3.85
2022-11-30T12:35:44.919Z,3.13
2022-11-30T12:38:26.168Z,3.40
2022-11-30T12:41:20.513Z,2.90
2022-11-30T12:44:11.961Z,2.88
2022-11-30T12:46:56.989Z,3.22
2022-11-30T12:49:56.955Z,3.28
2022-11-30T12:52:46.009Z,4.78
2022-11-30T12:55:28.383Z,3.10
2022-11-30T12:58:00.899Z,2.90
2022-11-30T13:00:39.892Z,2.70
2022-11-30T13:03:19.291Z,3.60
2022-11-30T13:05:53.129Z,2.47
2022-11-30T13:08:42.860Z,2.40
2022-11-30T13:11:20.437Z,2.40
2022-11-30T13:13:54.218Z,2.95
2022-11-30T13:16:24.812Z,2.17
2022-11-30T13:18:55.291Z,3.03
2022-11-30T13:21:30.390Z,1.77
2022-11-30T13:23:56.986Z,2.63
2022-11-30T13:26:29.538Z,2.30
2022-11-30T13:29:20.646Z,1.90
2022-11-30T13:32:14.018Z,2.10
2022-11-30T13:34:49.345Z,4.82
2022-11-30T13:37:27.191Z,2.05
2022-11-30T13:39:57.785Z,2.75
2022-11-30T13:42:27.024Z,2.60
2022-11-30T13:44:54.498Z,2.88
2022-11-30T13:47:36.456Z,2.78
2022-11-30T13:50:25.045Z,3.78
2022-11-30T13:53:00.688Z,3.05
2022-11-30T13:55:56.406Z,3.85
2022-11-30T13:58:23.786Z,2.55
2022-11-30T14:01:32.297Z,3.35
2022-11-30T17:36:18.799Z,12.10
2022-11-30T17:38:45.807Z,10.35
2022-11-30T17:41:18.863Z,11.95
2022-11-30T17:43:46.966Z,13.90
2022-11-30T17:46:16.839Z,35.03
2022-11-30T17:48:44.094Z,25.30
2022-11-30T17:51:11.113Z,13.85
2022-11-30T17:53:39.264Z,14.68
2022-11-30T17:56:11.254Z,17.15
2022-11-30T17:58:43.297Z,15.77
2022-11-30T18:01:25.615Z,15.65
2022-11-30T18:03:53.389Z,15.48
2022-11-30T18:06:20.377Z,20.20
2022-11-30T18:08:47.014Z,20.98
2022-11-30T18:11:25.210Z,22.58
2022-11-30T18:13:55.072Z,18.95
2022-11-30T18:16:30.550Z,23.55
2022-11-30T18:18:59.501Z,24.85
2022-11-30T18:21:29.732Z,19.83
2022-11-30T18:26:26.877Z,16.77
2022-11-30T18:28:59.028Z,18.77
2022-11-30T18:31:30.067Z,14.77
2022-11-30T18:34:02.391Z,15.88
2022-11-30T18:36:30.907Z,18.33
2022-11-30T18:38:58.009Z,14.35
2022-11-30T18:41:26.428Z,17.55
2022-11-30T18:43:53.690Z,16.48
2022-11-30T18:46:20.909Z,17.05
2022-11-30T18:48:51.829Z,22.80
2022-11-30T18:51:21.203Z,41.40
2022-11-30T18:53:48.046Z,46.53
2022-11-30T18:56:19.807Z,29.02
2022-11-30T18:58:47.575Z,19.02
2022-11-30T19:01:19.414Z,17.27
2022-11-30T19:03:52.831Z,13.82
2022-11-30T19:06:19.926Z,12.55
2022-11-30T19:08:47.805Z,11.35
2022-11-30T19:11:16.278Z,10.43
2022-11-30T19:13:43.417Z,11.35
2022-11-30T19:16:13.023Z,11.32
2022-11-30T19:18:40.107Z,11.82
2022-11-30T19:21:08.803Z,11.77
2022-11-30T19:23:36.849Z,12.40
2022-11-30T19:26:04.917Z,12.82
2022-11-30T19:28:33.036Z,12.52
2022-11-30T19:31:00.276Z,11.20
2022-11-30T19:33:27.912Z,10.82
2022-11-30T19:36:00.655Z,10.10
2022-11-30T19:38:27.252Z,11.00
2022-11-30T19:40:53.915Z,10.10
2022-11-30T19:43:20.612Z,8.05
2022-11-30T19:45:47.280Z,8.55
2022-11-30T19:48:14.003Z,8.00
2022-11-30T19:50:40.626Z,8.70
2022-11-30T19:53:07.270Z,6.72
2022-11-30T19:55:33.868Z,7.38
2022-11-30T19:58:00.593Z,8.07
2022-11-30T20:00:28.249Z,8.98
2022-11-30T20:02:55.099Z,8.95
2022-11-30T20:05:24.190Z,8.40
2022-11-30T20:07:51.151Z,7.85
2022-11-30T20:10:17.919Z,9.02
2022-11-30T20:12:44.567Z,8.27
2022-11-30T20:15:11.517Z,9.27
2022-11-30T20:17:38.413Z,9.48
2022-11-30T20:20:05.750Z,9.40
2022-11-30T20:22:33.642Z,8.45
2022-11-30T20:25:00.358Z,11.15
2022-11-30T20:27:27.046Z,14.77
2022-11-30T20:29:53.996Z,13.15
2022-11-30T20:32:20.714Z,12.98
2022-11-30T20:34:48.345Z,14.48
2022-11-30T20:37:16.921Z,15.82
2022-11-30T20:39:46.055Z,15.95
2022-11-30T20:42:13.315Z,18.52
2022-11-30T20:44:39.951Z,18.70
2022-11-30T20:47:06.667Z,16.17
2022-11-30T20:49:33.405Z,18.42
2022-11-30T20:52:00.048Z,19.80
2022-11-30T20:54:29.402Z,18.67
2022-11-30T20:56:57.541Z,19.10
2022-11-30T20:59:26.624Z,19.52
2022-11-30T21:01:56.794Z,21.00
2022-11-30T21:04:25.774Z,19.08
2022-11-30T21:06:53.434Z,33.30
2022-11-30T21:09:20.803Z,26.80
2022-11-30T21:11:48.455Z,31.95
2022-11-30T21:14:15.652Z,23.85
2022-11-30T21:16:42.346Z,26.35
2022-11-30T21:19:11.888Z,32.50
2022-11-30T21:21:38.698Z,31.90
2022-11-30T21:24:08.053Z,35.45
2022-11-30T21:26:40.369Z,30.80
2022-11-30T21:31:38.571Z,38.05
2022-11-30T21:34:05.407Z,32.38
2022-11-30T21:36:32.543Z,32.22
2022-11-30T21:39:05.655Z,31.95
2022-11-30T21:41:33.709Z,32.70
2022-11-30T21:44:00.384Z,32.50
2022-11-30T21:46:27.202Z,33.60
2022-11-30T21:48:54.062Z,33.22
2022-11-30T21:51:25.984Z,32.40
2022-11-30T21:53:55.638Z,26.90
2022-11-30T21:56:25.109Z,28.35
2022-11-30T21:58:52.467Z,26.75
2022-11-30T22:01:23.470Z,26.00
2022-11-30T22:03:50.350Z,21.30
2022-11-30T22:06:19.090Z,20.13
2022-11-30T22:08:46.692Z,20.40
2022-11-30T22:11:16.615Z,22.67
2022-11-30T22:13:44.213Z,19.52
2022-11-30T22:16:13.646Z,18.08
2022-11-30T22:18:42.027Z,18.45
2022-11-30T22:21:14.139Z,20.63
2022-11-30T22:23:44.425Z,20.13
2022-11-30T22:26:13.922Z,20.50
2022-11-30T22:28:43.743Z,18.55
2022-11-30T22:31:11.990Z,18.95
2022-11-30T22:33:40.651Z,15.18
2022-11-30T22:36:08.735Z,14.85
2022-11-30T22:38:35.501Z,14.93
2022-11-30T22:41:10.576Z,14.07
2022-11-30T22:43:37.355Z,13.75
2022-11-30T22:46:06.782Z,14.93
2022-11-30T22:48:34.230Z,15.10
2022-11-30T22:51:08.170Z,17.20
2022-11-30T22:53:36.193Z,15.20
2022-11-30T22:56:08.797Z,15.55
2022-11-30T22:58:35.758Z,16.63
2022-11-30T23:01:13.195Z,15.68
2022-11-30T23:03:43.025Z,15.75
2022-11-30T23:06:12.363Z,14.55
2022-11-30T23:08:39.125Z,14.85
2022-11-30T23:11:12.463Z,15.57
2022-11-30T23:13:41.175Z,14.85
2022-11-30T23:16:09.228Z,13.32
2022-11-30T23:18:48.548Z,14.30
2022-11-30T23:21:16.678Z,13.07
2022-11-30T23:23:44.080Z,12.50
2022-11-30T23:26:19.902Z,13.75
2022-11-30T23:28:48.963Z,13.80
2022-11-30T23:31:33.853Z,13.98
2022-11-30T23:34:04.747Z,12.98
2022-11-30T23:36:32.317Z,13.00
2022-11-30T23:39:02.050Z,13.07
2022-11-30T23:41:29.088Z,12.40
2022-11-30T23:43:56.491Z,12.38
2022-11-30T23:46:23.866Z,14.88
2022-11-30T23:48:50.867Z,14.45
2022-11-30T23:51:17.601Z,14.98
2022-11-30T23:53:44.476Z,16.15
2022-11-30T23:56:13.752Z,20.48
2022-11-30T23:58:40.408Z,15.23
